createdAt,value
2018-12-14T00:02:21.550Z,1.60
2018-12-14T00:04:49.522Z,1.70
2018-12-14T00:07:16.971Z,1.70
2018-12-14T00:09:44.424Z,1.70
2018-12-14T00:12:11.866Z,1.70
2018-12-14T00:14:39.319Z,1.60
2018-12-14T00:17:06.775Z,1.70
2018-12-14T00:19:34.227Z,1.70
2018-12-14T00:22:01.661Z,1.80
2018-12-14T00:24:29.111Z,2.00
2018-12-14T00:26:56.550Z,2.00
2018-12-14T00:29:23.995Z,2.00
2018-12-14T00:31:51.455Z,1.90
2018-12-14T00:34:18.905Z,2.00
2018-12-14T00:36:46.359Z,2.00
2018-12-14T00:39:13.814Z,2.00
2018-12-14T00:41:41.270Z,2.10
2018-12-14T00:44:08.714Z,1.90
2018-12-14T00:46:38.122Z,1.70
2018-12-14T00:49:05.564Z,1.60
2018-12-14T00:51:33.013Z,1.60
2018-12-14T00:54:00.460Z,1.60
2018-12-14T00:56:27.919Z,1.60
2018-12-14T00:58:55.364Z,1.70
2018-12-14T01:01:22.811Z,1.70
2018-12-14T01:03:50.315Z,1.50
2018-12-14T01:06:17.775Z,1.50
2018-12-14T01:08:45.206Z,1.60
2018-12-14T01:11:13.243Z,1.50
2018-12-14T01:13:40.692Z,1.60
2018-12-14T01:16:08.268Z,1.60
2018-12-14T01:18:35.727Z,1.70
2018-12-14T01:21:03.167Z,1.70
2018-12-14T01:23:30.619Z,1.70
2018-12-14T01:25:58.068Z,1.60
2018-12-14T01:28:25.510Z,1.60
2018-12-14T01:30:52.956Z,1.60
2018-12-14T01:33:20.415Z,1.70
2018-12-14T01:35:47.911Z,1.60
2018-12-14T01:38:15.367Z,1.60
2018-12-14T01:40:42.801Z,1.50
2018-12-14T01:43:10.254Z,1.60
2018-12-14T01:45:37.848Z,1.50
2018-12-14T01:48:05.265Z,1.50
2018-12-14T01:50:32.763Z,1.60
2018-12-14T01:53:00.215Z,1.60
2018-12-14T01:55:27.735Z,1.70
2018-12-14T01:57:55.214Z,1.70
2018-12-14T02:00:22.676Z,1.70
2018-12-14T02:02:50.133Z,1.70
2018-12-14T02:05:17.596Z,1.60
2018-12-14T02:07:45.038Z,1.80
2018-12-14T02:10:12.557Z,1.80
2018-12-14T02:12:40.173Z,1.80
2018-12-14T02:15:07.623Z,1.90
2018-12-14T02:17:35.073Z,1.90
2018-12-14T02:20:02.583Z,1.90
2018-12-14T02:22:30.023Z,1.90
2018-12-14T02:24:57.482Z,1.80
2018-12-14T02:27:24.918Z,1.90
2018-12-14T02:29:52.376Z,2.00
2018-12-14T02:32:19.815Z,2.10
2018-12-14T02:34:47.352Z,2.10
2018-12-14T02:37:14.839Z,2.10
2018-12-14T02:39:42.298Z,2.10
2018-12-14T02:42:09.742Z,2.10
2018-12-14T02:44:37.189Z,2.10
2018-12-14T02:47:04.641Z,2.10
2018-12-14T02:49:32.089Z,2.00
2018-12-14T02:51:59.548Z,2.00
2018-12-14T02:54:27.005Z,2.10
2018-12-14T02:56:54.467Z,2.10
2018-12-14T02:59:22.328Z,2.20
2018-12-14T03:01:49.859Z,2.10
2018-12-14T03:04:17.731Z,2.10
2018-12-14T03:06:45.182Z,2.10
2018-12-14T03:09:12.636Z,2.10
2018-12-14T03:11:40.091Z,2.20
2018-12-14T03:14:07.527Z,2.10
2018-12-14T03:16:35.009Z,1.90
2018-12-14T03:19:02.453Z,2.00
2018-12-14T03:21:29.894Z,2.10
2018-12-14T03:23:57.335Z,2.10
2018-12-14T03:26:24.770Z,2.10
2018-12-14T03:28:52.230Z,2.10
2018-12-14T03:31:19.668Z,2.10
2018-12-14T03:33:47.132Z,2.10
2018-12-14T03:36:14.558Z,2.20
2018-12-14T03:38:42.028Z,2.20
2018-12-14T03:41:09.470Z,2.20
2018-12-14T03:43:36.931Z,2.20
2018-12-14T03:46:04.388Z,2.20
2018-12-14T03:48:31.852Z,2.10
2018-12-14T03:50:59.339Z,2.00
2018-12-14T03:53:26.800Z,1.90
2018-12-14T03:55:54.338Z,1.90
2018-12-14T03:58:21.867Z,1.90
2018-12-14T04:00:49.482Z,2.00
2018-12-14T04:03:16.932Z,2.00
2018-12-14T04:05:44.374Z,2.00
2018-12-14T04:08:11.813Z,2.00
2018-12-14T04:10:39.363Z,2.00
2018-12-14T04:13:06.805Z,2.00
2018-12-14T04:15:34.249Z,2.00
2018-12-14T04:18:01.686Z,2.00
2018-12-14T04:20:29.183Z,2.00
2018-12-14T04:22:56.623Z,2.00
2018-12-14T04:25:24.070Z,2.10
2018-12-14T04:27:51.516Z,2.00
2018-12-14T04:30:19.064Z,1.90
2018-12-14T04:32:46.523Z,2.00
2018-12-14T04:35:13.990Z,2.10
2018-12-14T04:37:41.424Z,2.00
2018-12-14T04:40:08.972Z,1.90
2018-12-14T04:42:36.682Z,2.00
2018-12-14T04:45:04.949Z,2.00
2018-12-14T04:47:32.510Z,2.00
2018-12-14T04:49:59.955Z,2.00
2018-12-14T04:52:27.406Z,2.00
2018-12-14T04:54:54.892Z,2.00
2018-12-14T04:57:22.339Z,2.00
2018-12-14T04:59:50.132Z,2.00
2018-12-14T05:02:17.632Z,2.10
2018-12-14T05:04:45.060Z,2.10
2018-12-14T05:07:12.511Z,2.10
2018-12-14T05:09:40.092Z,2.10
2018-12-14T05:12:07.547Z,2.00
2018-12-14T05:14:34.982Z,2.00
2018-12-14T05:17:02.436Z,2.10
2018-12-14T05:19:29.881Z,2.00
2018-12-14T05:21:57.508Z,2.00
2018-12-14T05:24:24.937Z,2.00
2018-12-14T05:26:54.496Z,2.10
2018-12-14T05:29:25.686Z,2.10
2018-12-14T05:31:54.398Z,2.10
2018-12-14T05:34:24.733Z,2.10
2018-12-14T05:36:55.910Z,2.10
2018-12-14T05:39:27.938Z,2.10
2018-12-14T05:41:55.382Z,2.10
2018-12-14T05:44:22.819Z,2.10
2018-12-14T05:46:50.259Z,2.10
2018-12-14T05:49:17.789Z,2.10
2018-12-14T05:51:45.224Z,2.10
2018-12-14T05:54:12.666Z,2.10
2018-12-14T05:56:40.107Z,2.10
2018-12-14T05:59:07.578Z,2.10
2018-12-14T06:01:35.148Z,2.10
2018-12-14T06:04:02.671Z,2.00
2018-12-14T06:06:30.114Z,2.10
2018-12-14T06:08:57.726Z,2.10
2018-12-14T06:11:31.756Z,2.10
2018-12-14T06:14:05.547Z,2.10
2018-12-14T06:16:32.966Z,2.10
2018-12-14T06:19:00.418Z,2.10
2018-12-14T06:21:27.859Z,2.10
2018-12-14T06:23:55.307Z,2.10
2018-12-14T06:26:22.755Z,2.10
2018-12-14T06:28:50.210Z,2.10
2018-12-14T06:31:17.652Z,2.10
2018-12-14T06:33:45.111Z,2.10
2018-12-14T06:36:12.550Z,2.10
2018-12-14T06:38:39.987Z,2.20
2018-12-14T06:41:07.860Z,2.20
2018-12-14T06:43:35.299Z,2.10
2018-12-14T06:46:02.750Z,2.10
2018-12-14T06:48:30.217Z,2.10
2018-12-14T06:50:58.032Z,2.20
2018-12-14T06:53:25.532Z,2.10
2018-12-14T06:55:53.015Z,2.10
2018-12-14T06:58:21.153Z,2.10
2018-12-14T07:00:48.603Z,2.10
2018-12-14T07:03:16.041Z,2.10
2018-12-14T07:05:43.489Z,2.10
2018-12-14T07:08:10.935Z,2.10
2018-12-14T07:10:38.370Z,2.10
2018-12-14T07:13:05.827Z,2.10
2018-12-14T07:15:33.276Z,2.10
2018-12-14T07:18:00.735Z,2.10
2018-12-14T07:20:28.238Z,2.10
2018-12-14T07:22:56.111Z,2.10
2018-12-14T07:25:23.541Z,2.10
2018-12-14T07:27:50.986Z,2.10
2018-12-14T07:30:18.423Z,2.00
2018-12-14T07:32:45.876Z,2.00
2018-12-14T07:35:13.323Z,2.00
2018-12-14T07:37:40.775Z,2.10
2018-12-14T07:40:08.232Z,2.10
2018-12-14T07:42:35.681Z,2.10
2018-12-14T07:45:04.058Z,2.10
2018-12-14T07:47:31.539Z,2.10
2018-12-14T07:49:58.999Z,2.20
2018-12-14T07:52:26.442Z,2.10
2018-12-14T07:54:53.914Z,2.20
2018-12-14T07:57:21.355Z,2.20
2018-12-14T07:59:48.815Z,2.30
2018-12-14T08:02:16.255Z,2.20
2018-12-14T08:04:43.862Z,2.30
2018-12-14T08:07:12.083Z,2.20
2018-12-14T08:09:39.534Z,2.20
2018-12-14T08:12:07.064Z,2.30
2018-12-14T08:14:34.519Z,2.30
2018-12-14T08:17:01.967Z,2.20
2018-12-14T08:19:29.833Z,2.30
2018-12-14T08:21:57.826Z,2.40
2018-12-14T08:24:25.280Z,2.40
2018-12-14T08:26:52.727Z,2.50
2018-12-14T08:29:20.179Z,2.40
2018-12-14T08:31:47.631Z,2.40
2018-12-14T08:34:15.394Z,2.50
2018-12-14T08:36:42.873Z,2.50
2018-12-14T08:39:10.315Z,2.40
2018-12-14T08:41:38.027Z,2.50
2018-12-14T08:44:05.712Z,2.50
2018-12-14T08:46:33.160Z,2.50
2018-12-14T08:49:00.600Z,2.50
2018-12-14T08:51:28.071Z,2.50
2018-12-14T08:53:55.514Z,2.40
2018-12-14T08:56:23.702Z,2.40
2018-12-14T08:58:51.149Z,2.50
2018-12-14T09:01:18.599Z,2.50
2018-12-14T09:03:46.092Z,2.50
2018-12-14T09:06:13.539Z,2.60
2018-12-14T09:08:42.682Z,2.60
2018-12-14T09:11:10.563Z,2.60
2018-12-14T09:13:38.134Z,2.60
2018-12-14T09:16:05.576Z,2.60
2018-12-14T09:18:33.430Z,2.50
2018-12-14T09:21:01.272Z,2.60
2018-12-14T09:23:28.911Z,2.50
2018-12-14T09:25:56.482Z,2.50
2018-12-14T09:28:23.954Z,2.60
2018-12-14T09:30:51.389Z,2.70
2018-12-14T09:33:18.830Z,2.70
2018-12-14T09:35:46.279Z,2.60
2018-12-14T09:38:14.003Z,2.60
2018-12-14T09:40:41.444Z,2.60
2018-12-14T09:43:08.925Z,2.60
2018-12-14T09:45:36.373Z,2.60
2018-12-14T09:48:03.831Z,2.70
2018-12-14T09:50:31.995Z,2.70
2018-12-14T09:52:59.430Z,2.70
2018-12-14T09:55:26.990Z,2.60
2018-12-14T09:57:54.426Z,2.60
2018-12-14T10:00:21.883Z,2.60
2018-12-14T10:02:49.324Z,2.60
2018-12-14T10:05:16.767Z,2.70
2018-12-14T10:07:47.039Z,2.70
2018-12-14T10:10:13.770Z,2.70
2018-12-14T10:12:41.223Z,2.70
2018-12-14T10:15:08.803Z,2.70
2018-12-14T10:17:36.254Z,2.70
2018-12-14T10:20:06.326Z,2.70
2018-12-14T10:22:33.778Z,2.70
2018-12-14T10:25:01.216Z,2.80
2018-12-14T10:27:28.778Z,2.80
2018-12-14T10:29:56.263Z,2.80
2018-12-14T10:32:23.743Z,2.80
2018-12-14T10:34:51.206Z,2.80
2018-12-14T10:37:18.674Z,2.80
2018-12-14T10:39:46.114Z,2.80
2018-12-14T10:42:13.699Z,2.80
2018-12-14T10:44:41.144Z,2.80
2018-12-14T10:47:08.614Z,2.80
2018-12-14T10:49:36.053Z,2.80
2018-12-14T10:52:03.526Z,2.80
2018-12-14T10:54:31.128Z,2.70
2018-12-14T10:56:59.011Z,2.80
2018-12-14T10:59:26.456Z,2.90
2018-12-14T11:01:56.262Z,2.80
2018-12-14T11:04:25.542Z,2.80
2018-12-14T11:06:53.627Z,2.90
2018-12-14T11:09:21.130Z,2.90
2018-12-14T11:11:48.591Z,3.00
2018-12-14T11:14:16.766Z,3.00
2018-12-14T11:16:44.198Z,2.90
2018-12-14T11:19:11.710Z,2.90
2018-12-14T11:21:39.215Z,3.00
2018-12-14T11:24:06.667Z,3.00
2018-12-14T11:26:34.773Z,3.00
2018-12-14T11:29:02.215Z,3.00
2018-12-14T11:31:29.650Z,2.80
2018-12-14T11:33:57.154Z,2.90
2018-12-14T11:36:24.608Z,3.00
2018-12-14T11:38:52.062Z,3.00
2018-12-14T11:41:19.504Z,3.00
2018-12-14T11:43:46.950Z,2.90
2018-12-14T11:46:14.460Z,3.00
2018-12-14T11:48:41.899Z,3.00
2018-12-14T11:51:10.467Z,2.90
2018-12-14T11:53:37.913Z,2.90
2018-12-14T11:56:05.367Z,3.00
2018-12-14T11:58:32.820Z,3.00
2018-12-14T12:01:00.271Z,3.00
2018-12-14T12:03:27.707Z,3.10
2018-12-14T12:05:55.158Z,3.20
2018-12-14T12:08:22.663Z,3.20
2018-12-14T12:10:50.120Z,3.10
2018-12-14T12:13:17.547Z,3.00
2018-12-14T12:15:44.995Z,3.10
2018-12-14T12:18:12.443Z,3.20
2018-12-14T12:20:39.877Z,3.20
2018-12-14T12:23:07.336Z,3.00
2018-12-14T12:25:34.779Z,3.10
2018-12-14T12:28:02.226Z,3.00
2018-12-14T12:30:29.667Z,3.00
2018-12-14T12:32:57.123Z,3.00
2018-12-14T12:35:24.572Z,3.00
2018-12-14T12:37:52.023Z,3.00
2018-12-14T12:40:19.454Z,3.00
2018-12-14T12:42:46.904Z,3.00
2018-12-14T12:45:14.344Z,3.00
2018-12-14T12:47:41.815Z,3.00
2018-12-14T12:50:09.263Z,3.00
2018-12-14T12:52:36.703Z,3.00
2018-12-14T12:55:04.547Z,3.00
2018-12-14T12:57:32.075Z,3.00
2018-12-14T12:59:59.528Z,2.90
2018-12-14T13:02:26.965Z,2.90
2018-12-14T13:04:55.492Z,3.00
2018-12-14T13:07:23.001Z,2.90
2018-12-14T13:09:50.462Z,2.90
2018-12-14T13:12:17.926Z,2.90
2018-12-14T13:14:45.377Z,2.90
2018-12-14T13:17:12.887Z,2.90
2018-12-14T13:19:40.348Z,2.80
2018-12-14T13:22:07.831Z,2.90
2018-12-14T13:24:35.289Z,2.80
2018-12-14T13:27:03.041Z,2.80
2018-12-14T13:29:32.808Z,2.90
2018-12-14T13:32:00.546Z,2.90
2018-12-14T13:34:27.987Z,2.90
2018-12-14T13:36:55.438Z,2.90
2018-12-14T13:39:22.906Z,3.00
2018-12-14T13:41:50.467Z,2.90
2018-12-14T13:44:18.168Z,2.90
2018-12-14T13:46:45.618Z,2.90
2018-12-14T13:49:13.146Z,2.90
2018-12-14T13:51:40.821Z,2.80
2018-12-14T13:54:08.267Z,2.90
2018-12-14T13:56:35.723Z,2.80
2018-12-14T13:59:03.163Z,2.80
2018-12-14T14:01:30.650Z,2.80
2018-12-14T14:03:58.083Z,2.80
2018-12-14T14:06:25.517Z,2.70
2018-12-14T14:08:52.977Z,2.70
2018-12-14T14:11:20.477Z,2.80
2018-12-14T14:13:47.910Z,2.80
2018-12-14T14:16:15.344Z,2.70
2018-12-14T14:18:42.790Z,2.70
2018-12-14T14:21:10.244Z,2.70
2018-12-14T14:23:37.686Z,2.70
2018-12-14T14:26:05.839Z,2.80
2018-12-14T14:28:33.299Z,2.70
2018-12-14T14:31:00.732Z,2.70
2018-12-14T14:33:28.187Z,2.60
2018-12-14T14:35:55.627Z,2.60
2018-12-14T14:38:23.061Z,2.60
2018-12-14T14:40:50.514Z,2.50
2018-12-14T14:43:17.946Z,2.50
2018-12-14T14:45:45.478Z,2.50
2018-12-14T14:48:12.906Z,2.60
2018-12-14T14:50:40.352Z,2.60
2018-12-14T14:53:07.784Z,2.60
2018-12-14T14:55:35.242Z,2.70
2018-12-14T14:58:02.740Z,2.60
2018-12-14T15:00:31.758Z,2.60
2018-12-14T15:02:59.361Z,2.60
2018-12-14T15:05:26.831Z,2.60
2018-12-14T15:07:54.267Z,2.60
2018-12-14T15:10:21.747Z,2.60
2018-12-14T15:12:49.175Z,2.60
2018-12-14T15:15:16.644Z,2.50
2018-12-14T15:17:44.099Z,2.50
2018-12-14T15:20:11.601Z,2.40
2018-12-14T15:22:39.046Z,2.40
2018-12-14T15:25:06.563Z,2.50
2018-12-14T15:27:34.288Z,2.50
2018-12-14T15:30:01.721Z,2.60
2018-12-14T15:32:29.329Z,2.50
2018-12-14T15:34:59.261Z,2.50
2018-12-14T15:37:26.907Z,2.50
2018-12-14T15:39:54.406Z,2.50
2018-12-14T15:42:21.865Z,2.50
2018-12-14T15:44:49.351Z,2.40
2018-12-14T15:47:16.805Z,2.50
2018-12-14T15:49:44.290Z,2.40
2018-12-14T15:52:11.713Z,2.50
2018-12-14T15:54:39.462Z,2.50
2018-12-14T15:57:08.906Z,2.50
2018-12-14T15:59:36.357Z,2.60
2018-12-14T16:02:03.959Z,2.60
2018-12-14T16:04:31.479Z,2.60
2018-12-14T16:06:58.910Z,2.50
2018-12-14T16:09:26.422Z,2.60
2018-12-14T16:11:53.867Z,2.60
2018-12-14T16:14:21.331Z,2.60
2018-12-14T16:16:48.859Z,2.40
2018-12-14T16:19:16.602Z,2.50
2018-12-14T16:21:44.064Z,2.50
2018-12-14T16:24:11.619Z,2.50
2018-12-14T16:26:39.059Z,2.40
2018-12-14T16:29:06.569Z,2.40
2018-12-14T16:31:34.046Z,2.40
2018-12-14T16:34:01.765Z,2.50
2018-12-14T16:36:30.411Z,2.50
2018-12-14T16:38:57.871Z,2.50
2018-12-14T16:41:25.597Z,2.50
2018-12-14T16:43:53.047Z,2.40
2018-12-14T16:46:20.635Z,2.40
2018-12-14T16:48:48.263Z,2.50
2018-12-14T16:51:17.307Z,2.60
2018-12-14T16:53:52.257Z,2.50
2018-12-14T16:56:35.876Z,2.70
2018-12-14T16:59:03.413Z,2.80
2018-12-14T17:01:31.166Z,2.70
2018-12-14T17:03:58.698Z,2.70
2018-12-14T17:06:26.168Z,2.70
2018-12-14T17:08:53.740Z,2.70
2018-12-14T17:11:21.223Z,2.70
2018-12-14T17:13:49.640Z,2.60
2018-12-14T17:16:17.143Z,2.60
2018-12-14T17:18:44.589Z,2.60
2018-12-14T17:21:12.523Z,2.60
2018-12-14T17:23:40.358Z,2.60
2018-12-14T17:26:07.839Z,2.70
2018-12-14T17:28:35.546Z,2.60
2018-12-14T17:31:03.003Z,2.60
2018-12-14T17:33:35.926Z,2.60
2018-12-14T17:36:00.282Z,2.60
2018-12-14T17:38:28.252Z,2.70
2018-12-14T17:40:55.864Z,2.70
2018-12-14T17:43:23.339Z,2.80
2018-12-14T17:45:51.092Z,2.80
2018-12-14T17:48:18.570Z,2.70
2018-12-14T17:50:46.092Z,2.60
2018-12-14T17:53:13.666Z,2.60
2018-12-14T17:55:41.204Z,2.70
2018-12-14T17:58:08.655Z,2.70
2018-12-14T18:00:36.091Z,2.60
2018-12-14T18:03:03.548Z,2.60
2018-12-14T18:05:31.015Z,2.60
2018-12-14T18:07:58.522Z,2.60
2018-12-14T18:10:25.972Z,2.60
2018-12-14T18:12:53.418Z,2.60
2018-12-14T18:15:21.001Z,2.50
2018-12-14T18:17:48.442Z,2.60
2018-12-14T18:20:15.894Z,2.50
2018-12-14T18:22:43.516Z,2.50
2018-12-14T18:25:11.239Z,2.50
2018-12-14T18:27:38.782Z,2.60
2018-12-14T18:30:06.758Z,2.50
2018-12-14T18:32:34.218Z,2.60
2018-12-14T18:35:01.661Z,2.60
2018-12-14T18:37:29.118Z,2.60
2018-12-14T18:39:56.566Z,2.60
2018-12-14T18:42:24.010Z,2.60
2018-12-14T18:44:51.455Z,2.60
2018-12-14T18:47:18.912Z,2.70
2018-12-14T18:49:46.355Z,2.60
2018-12-14T18:52:13.825Z,2.50
2018-12-14T18:54:41.280Z,2.50
2018-12-14T18:57:08.719Z,2.60
2018-12-14T18:59:36.180Z,2.60
2018-12-14T19:02:03.747Z,2.70
2018-12-14T19:04:31.199Z,2.60
2018-12-14T19:06:58.816Z,2.60
2018-12-14T19:09:26.438Z,2.60
2018-12-14T19:11:54.107Z,2.60
2018-12-14T19:14:21.739Z,2.60
2018-12-14T19:16:49.166Z,2.60
2018-12-14T19:19:16.645Z,2.70
2018-12-14T19:21:44.102Z,2.70
2018-12-14T19:24:11.576Z,2.70
2018-12-14T19:26:39.885Z,2.60
2018-12-14T19:29:07.355Z,2.70
2018-12-14T19:31:34.866Z,2.60
2018-12-14T19:34:02.312Z,2.60
2018-12-14T19:36:29.769Z,2.60
2018-12-14T19:38:57.365Z,2.50
2018-12-14T19:41:25.893Z,2.50
2018-12-14T19:43:53.352Z,2.50
2018-12-14T19:46:20.811Z,2.50
2018-12-14T19:48:48.273Z,2.50
2018-12-14T19:51:15.719Z,2.50
2018-12-14T19:53:43.170Z,2.40
2018-12-14T19:56:10.699Z,2.40
2018-12-14T19:58:38.143Z,2.30
2018-12-14T20:01:05.653Z,2.30
2018-12-14T20:03:33.195Z,2.40
2018-12-14T20:06:00.651Z,2.40
2018-12-14T20:08:28.107Z,2.30
2018-12-14T20:10:55.542Z,2.30
2018-12-14T20:13:23.072Z,2.40
2018-12-14T20:15:57.156Z,2.30
2018-12-14T20:18:20.008Z,2.20
2018-12-14T20:20:47.448Z,2.30
2018-12-14T20:23:14.898Z,2.30
2018-12-14T20:25:42.345Z,2.30
2018-12-14T20:28:09.794Z,2.30
2018-12-14T20:30:37.242Z,2.10
2018-12-14T20:33:04.778Z,2.10
2018-12-14T20:35:32.398Z,2.10
2018-12-14T20:38:00.015Z,2.00
2018-12-14T20:40:27.489Z,1.90
2018-12-14T20:42:54.921Z,1.90
2018-12-14T20:45:22.371Z,1.90
2018-12-14T20:47:49.828Z,2.00
2018-12-14T20:50:17.266Z,1.90
2018-12-14T20:52:45.243Z,2.00
2018-12-14T20:55:12.705Z,2.00
2018-12-14T20:57:40.157Z,1.90
2018-12-14T21:00:08.450Z,1.90
2018-12-14T21:02:35.910Z,1.90
2018-12-14T21:05:04.004Z,2.00
2018-12-14T21:07:31.467Z,2.00
2018-12-14T21:09:59.962Z,1.90
2018-12-14T21:12:27.457Z,1.90
2018-12-14T21:14:57.830Z,1.90
2018-12-14T21:17:25.557Z,2.00
2018-12-14T21:19:55.458Z,2.00
2018-12-14T21:22:22.959Z,1.90
2018-12-14T21:24:50.393Z,1.90
2018-12-14T21:29:51.374Z,1.90
2018-12-14T21:32:20.727Z,2.00
2018-12-14T21:34:48.201Z,1.90
2018-12-14T21:37:17.340Z,1.80
2018-12-14T21:39:45.769Z,1.90
2018-12-14T21:42:13.227Z,1.90
2018-12-14T21:44:40.999Z,1.90
2018-12-14T21:47:08.528Z,1.90
2018-12-14T21:49:36.032Z,1.90
2018-12-14T21:52:03.474Z,1.90
2018-12-14T21:54:30.941Z,1.90
2018-12-14T21:56:58.495Z,1.80
2018-12-14T21:59:25.946Z,1.90
2018-12-14T22:01:53.422Z,1.90
2018-12-14T22:04:20.875Z,1.80
2018-12-14T22:06:48.310Z,1.80
2018-12-14T22:09:15.987Z,1.80
2018-12-14T22:11:43.436Z,1.80
2018-12-14T22:14:11.039Z,1.80
2018-12-14T22:16:39.274Z,1.80
2018-12-14T22:19:07.063Z,1.70
2018-12-14T22:21:34.867Z,1.80
2018-12-14T22:24:02.333Z,1.90
2018-12-14T22:26:29.754Z,1.90
2018-12-14T22:28:57.202Z,1.80
2018-12-14T22:31:24.660Z,1.90
2018-12-14T22:33:52.116Z,1.90
2018-12-14T22:36:19.645Z,1.80
2018-12-14T22:38:47.074Z,1.80
2018-12-14T22:41:14.535Z,1.90
2018-12-14T22:43:42.079Z,1.90
2018-12-14T22:46:09.536Z,1.90
2018-12-14T22:48:36.986Z,1.90
2018-12-14T22:51:04.446Z,1.80
2018-12-14T22:53:31.887Z,2.00
2018-12-14T22:55:59.339Z,1.80
2018-12-14T22:58:26.787Z,1.90
2018-12-14T23:00:54.290Z,1.80
2018-12-14T23:03:21.741Z,1.80
2018-12-14T23:05:49.630Z,1.70
2018-12-14T23:08:17.065Z,1.80
2018-12-14T23:10:44.508Z,1.80
2018-12-14T23:13:11.967Z,1.70
2018-12-14T23:15:39.418Z,1.80
2018-12-14T23:18:06.878Z,1.80
2018-12-14T23:20:34.318Z,1.80
2018-12-14T23:23:01.771Z,1.80
2018-12-14T23:25:29.222Z,1.70
2018-12-14T23:27:56.678Z,1.70
2018-12-14T23:30:24.578Z,1.80
2018-12-14T23:32:52.642Z,1.90
2018-12-14T23:35:20.278Z,1.80
2018-12-14T23:37:47.750Z,1.80
2018-12-14T23:40:15.198Z,1.80
2018-12-14T23:42:42.630Z,1.80
2018-12-14T23:45:10.300Z,1.80
2018-12-14T23:47:39.014Z,1.80
2018-12-14T23:50:08.735Z,1.80
2018-12-14T23:52:38.349Z,1.80
2018-12-14T23:55:06.293Z,1.70
